createdAt,value
2022-10-12T00:00:42.841Z,2.80
2022-10-12T00:04:10.262Z,2.80
2022-10-12T00:07:23.193Z,2.47
2022-10-12T00:10:29.378Z,2.65
2022-10-12T00:13:35.330Z,2.70
2022-10-12T00:16:41.406Z,2.88
2022-10-12T00:19:53.586Z,2.75
2022-10-12T00:23:01.503Z,2.90
2022-10-12T00:26:08.227Z,2.63
2022-10-12T00:29:15.375Z,2.90
2022-10-12T00:32:23.186Z,2.65
2022-10-12T00:35:28.187Z,2.72
2022-10-12T00:38:36.746Z,3.00
2022-10-12T00:41:42.884Z,2.30
2022-10-12T00:44:49.246Z,3.00
2022-10-12T00:47:55.461Z,3.33
2022-10-12T00:51:02.949Z,2.47
2022-10-12T00:54:14.456Z,2.45
2022-10-12T00:57:28.855Z,3.20
2022-10-12T01:00:34.538Z,2.42
2022-10-12T01:03:41.578Z,2.17
2022-10-12T01:06:48.994Z,2.90
2022-10-12T01:09:56.999Z,2.83
2022-10-12T01:13:03.026Z,2.33
2022-10-12T01:16:14.557Z,2.60
2022-10-12T01:19:28.607Z,2.67
2022-10-12T01:22:35.293Z,2.92
2022-10-12T01:25:52.555Z,2.30
2022-10-12T01:29:01.962Z,2.88
2022-10-12T01:32:15.387Z,2.45
2022-10-12T01:35:24.708Z,2.83
2022-10-12T01:38:46.334Z,2.50
2022-10-12T01:41:56.509Z,2.72
2022-10-12T01:45:04.393Z,2.63
2022-10-12T01:48:14.961Z,3.45
2022-10-12T01:51:25.083Z,2.80
2022-10-12T01:54:37.539Z,2.38
2022-10-12T01:57:49.590Z,2.60
2022-10-12T02:00:58.243Z,2.75
2022-10-12T02:04:09.442Z,2.75
2022-10-12T02:07:18.730Z,3.03
2022-10-12T02:10:27.690Z,2.67
2022-10-12T02:13:35.582Z,3.08
2022-10-12T02:16:44.011Z,2.58
2022-10-12T02:19:54.101Z,2.45
2022-10-12T02:23:01.645Z,2.90
2022-10-12T02:26:08.215Z,2.58
2022-10-12T02:29:17.687Z,3.28
2022-10-12T02:32:23.996Z,2.88
2022-10-12T02:35:35.842Z,3.50
2022-10-12T02:38:42.863Z,3.38
2022-10-12T02:42:02.415Z,2.97
2022-10-12T02:45:08.767Z,3.00
2022-10-12T02:48:15.237Z,2.72
2022-10-12T02:51:26.598Z,3.30
2022-10-12T02:54:32.338Z,3.50
2022-10-12T02:57:37.950Z,2.72
2022-10-12T03:00:43.126Z,3.42
2022-10-12T03:03:50.216Z,2.97
2022-10-12T03:06:57.845Z,2.80
2022-10-12T03:10:03.388Z,3.67
2022-10-12T03:13:09.292Z,3.85
2022-10-12T03:16:14.876Z,3.25
2022-10-12T03:19:22.146Z,3.25
2022-10-12T03:22:33.303Z,3.28
2022-10-12T03:25:38.311Z,3.00
2022-10-12T03:28:50.514Z,2.97
2022-10-12T03:31:56.527Z,3.20
2022-10-12T03:35:03.154Z,3.30
2022-10-12T03:38:22.959Z,2.70
2022-10-12T03:41:29.064Z,3.08
2022-10-12T03:44:35.218Z,3.05
2022-10-12T03:47:41.663Z,3.50
2022-10-12T03:54:47.991Z,3.53
2022-10-12T03:58:06.232Z,3.53
2022-10-12T04:01:18.843Z,3.10
2022-10-12T04:04:27.603Z,3.15
2022-10-12T04:07:32.647Z,3.08
2022-10-12T04:10:40.961Z,2.75
2022-10-12T04:13:46.041Z,2.78
2022-10-12T04:16:53.322Z,3.40
2022-10-12T04:19:58.351Z,3.45
2022-10-12T04:23:03.683Z,3.00
2022-10-12T04:26:12.809Z,3.55
2022-10-12T04:29:20.225Z,3.30
2022-10-12T04:32:25.917Z,3.28
2022-10-12T04:35:31.222Z,3.42
2022-10-12T04:38:37.733Z,3.00
2022-10-12T04:41:45.813Z,3.33
2022-10-12T04:44:53.487Z,3.10
2022-10-12T04:51:51.991Z,3.30
2022-10-12T04:54:57.488Z,3.33
2022-10-12T04:58:06.075Z,3.58
2022-10-12T05:01:12.348Z,3.15
2022-10-12T05:04:18.630Z,4.10
2022-10-12T05:07:26.254Z,3.78
2022-10-12T05:10:32.934Z,5.03
2022-10-12T05:13:41.368Z,3.85
2022-10-12T05:16:46.822Z,3.55
2022-10-12T05:19:52.502Z,3.05
2022-10-12T05:23:00.482Z,4.53
2022-10-12T05:26:06.381Z,4.95
2022-10-12T05:29:17.171Z,4.05
2022-10-12T05:32:24.319Z,4.82
2022-10-12T05:35:31.901Z,4.43
2022-10-12T05:38:38.735Z,4.53
2022-10-12T05:41:44.248Z,3.92
2022-10-12T05:44:52.971Z,3.58
2022-10-12T05:47:58.335Z,3.42
2022-10-12T05:51:06.316Z,3.90
2022-10-12T05:54:26.669Z,3.38
2022-10-12T05:57:34.891Z,3.53
2022-10-12T06:00:44.805Z,3.58
2022-10-12T06:03:50.830Z,4.20
2022-10-12T06:06:56.181Z,3.97
2022-10-12T06:10:02.039Z,3.53
2022-10-12T06:13:07.349Z,3.42
2022-10-12T06:16:15.817Z,3.80
2022-10-12T06:19:20.903Z,3.20
2022-10-12T06:22:28.683Z,4.57
2022-10-12T06:25:34.238Z,3.92
2022-10-12T06:28:40.085Z,4.47
2022-10-12T06:31:51.619Z,3.50
2022-10-12T06:34:58.728Z,3.15
2022-10-12T06:38:05.336Z,3.30
2022-10-12T06:41:11.566Z,2.90
2022-10-12T06:44:16.813Z,3.65
2022-10-12T06:47:26.675Z,3.58
2022-10-12T06:50:31.925Z,3.38
2022-10-12T06:53:41.912Z,3.63
2022-10-12T06:56:50.060Z,3.00
2022-10-12T06:59:55.926Z,3.58
2022-10-12T07:03:06.460Z,2.92
2022-10-12T07:06:13.447Z,4.13
2022-10-12T07:09:19.432Z,3.85
2022-10-12T07:12:25.202Z,3.92
2022-10-12T07:15:32.329Z,3.17
2022-10-12T07:18:42.547Z,2.90
2022-10-12T07:21:49.762Z,3.47
2022-10-12T07:24:55.621Z,3.13
2022-10-12T07:28:01.411Z,3.58
2022-10-12T07:31:09.828Z,3.08
2022-10-12T07:34:17.634Z,3.28
2022-10-12T07:37:31.030Z,3.10
2022-10-12T07:40:36.822Z,3.50
2022-10-12T07:43:44.282Z,3.22
2022-10-12T07:46:50.126Z,3.63
2022-10-12T07:49:59.060Z,4.63
2022-10-12T07:53:04.447Z,3.58
2022-10-12T07:56:15.235Z,3.90
2022-10-12T07:59:21.641Z,2.95
2022-10-12T08:02:30.742Z,2.85
2022-10-12T08:05:39.669Z,3.08
2022-10-12T08:08:56.301Z,2.88
2022-10-12T08:12:01.831Z,2.75
2022-10-12T08:15:07.867Z,2.65
2022-10-12T08:18:15.451Z,2.70
2022-10-12T08:21:24.265Z,2.97
2022-10-12T08:24:29.805Z,3.47
2022-10-12T08:27:36.504Z,3.15
2022-10-12T08:30:42.447Z,3.58
2022-10-12T08:33:50.311Z,3.03
2022-10-12T08:37:01.141Z,2.65
2022-10-12T08:40:07.467Z,3.40
2022-10-12T08:43:17.497Z,2.67
2022-10-12T08:46:23.951Z,3.10
2022-10-12T08:49:36.938Z,2.88
2022-10-12T08:52:51.157Z,2.42
2022-10-12T08:55:59.566Z,2.47
2022-10-12T08:59:05.522Z,3.30
2022-10-12T09:02:22.808Z,2.50
2022-10-12T09:05:32.293Z,2.45
2022-10-12T09:08:49.914Z,1.90
2022-10-12T09:12:05.435Z,2.55
2022-10-12T09:15:15.030Z,2.13
2022-10-12T09:18:25.224Z,2.42
2022-10-12T09:21:36.074Z,2.90
2022-10-12T09:24:48.910Z,2.80
2022-10-12T09:27:54.356Z,2.55
2022-10-12T09:31:08.400Z,2.30
2022-10-12T09:34:19.023Z,2.85
2022-10-12T09:37:26.686Z,2.33
2022-10-12T09:40:56.290Z,2.03
2022-10-12T09:44:07.238Z,2.20
2022-10-12T09:47:27.913Z,1.98
2022-10-12T09:50:42.159Z,1.70
2022-10-12T09:53:57.683Z,1.90
2022-10-12T09:57:10.006Z,2.22
2022-10-12T10:00:30.527Z,1.63
2022-10-12T10:03:39.351Z,2.15
2022-10-12T10:06:46.079Z,1.50
2022-10-12T10:09:53.864Z,1.80
2022-10-12T10:13:05.594Z,1.20
2022-10-12T10:16:18.081Z,1.83
2022-10-12T10:19:25.415Z,1.42
2022-10-12T10:22:39.325Z,1.63
2022-10-12T10:26:00.222Z,1.77
2022-10-12T10:29:21.857Z,2.15
2022-10-12T10:32:31.356Z,1.55
2022-10-12T10:35:39.326Z,2.10
2022-10-12T10:38:57.720Z,2.17
2022-10-12T10:42:16.254Z,1.42
2022-10-12T10:45:34.237Z,1.83
2022-10-12T10:48:54.176Z,2.03
2022-10-12T10:52:02.523Z,1.90
2022-10-12T10:55:20.854Z,1.95
2022-10-12T10:58:42.041Z,1.70
2022-10-12T11:01:55.662Z,2.40
2022-10-12T11:05:07.219Z,1.83
2022-10-12T11:08:15.999Z,2.03
2022-10-12T11:11:25.200Z,2.15
2022-10-12T11:14:37.710Z,2.55
2022-10-12T11:17:55.971Z,2.83
2022-10-12T11:21:07.930Z,2.30
2022-10-12T11:24:16.745Z,1.90
2022-10-12T11:27:28.294Z,2.13
2022-10-12T11:30:47.532Z,1.58
2022-10-12T11:33:56.451Z,2.28
2022-10-12T11:37:19.176Z,2.58
2022-10-12T11:44:05.385Z,2.10
2022-10-12T11:47:15.425Z,1.90
2022-10-12T11:50:32.406Z,2.30
2022-10-12T11:53:50.110Z,2.08
2022-10-12T11:57:04.839Z,2.33
2022-10-12T12:00:42.195Z,2.22
2022-10-12T12:04:29.297Z,2.45
2022-10-12T12:07:47.022Z,2.28
2022-10-12T12:11:13.172Z,1.77
2022-10-12T12:14:57.645Z,2.20
2022-10-12T12:18:16.644Z,1.92
2022-10-12T12:21:26.106Z,2.03
2022-10-12T12:24:33.963Z,1.80
2022-10-12T12:27:45.854Z,1.98
2022-10-12T12:31:04.368Z,2.20
2022-10-12T12:34:33.668Z,1.55
2022-10-12T12:37:42.382Z,2.05
2022-10-12T12:41:04.653Z,1.98
2022-10-12T12:44:36.136Z,1.80
2022-10-12T12:47:46.683Z,2.10
2022-10-12T12:50:56.130Z,2.15
2022-10-12T12:54:04.874Z,1.90
2022-10-12T12:57:26.431Z,1.73
2022-10-12T13:00:43.394Z,1.40
2022-10-12T13:04:10.130Z,1.67
2022-10-12T13:07:35.208Z,1.83
2022-10-12T13:10:50.854Z,1.70
2022-10-12T13:14:04.188Z,1.80
2022-10-12T13:17:37.435Z,1.88
2022-10-12T13:20:50.398Z,1.80
2022-10-12T13:24:09.051Z,1.88
2022-10-12T13:27:19.743Z,2.15
2022-10-12T13:30:31.742Z,1.80
2022-10-12T13:33:50.738Z,2.25
2022-10-12T13:37:01.915Z,1.85
2022-10-12T13:40:08.671Z,1.73
2022-10-12T13:43:29.460Z,1.98
2022-10-12T13:46:41.404Z,1.83
2022-10-12T13:49:51.801Z,1.98
2022-10-12T13:53:02.357Z,2.05
2022-10-12T13:56:10.204Z,2.53
2022-10-12T13:59:21.434Z,2.08
2022-10-12T14:02:32.864Z,3.25
2022-10-12T14:05:53.843Z,1.97
2022-10-12T14:09:07.524Z,2.10
2022-10-12T14:12:13.618Z,2.72
2022-10-12T14:15:20.242Z,2.40
2022-10-12T14:18:39.927Z,2.40
2022-10-12T14:21:52.146Z,2.40
2022-10-12T14:25:12.149Z,2.53
2022-10-12T14:28:37.729Z,2.83
2022-10-12T14:32:03.227Z,2.85
2022-10-12T14:35:15.064Z,2.65
2022-10-12T14:38:42.109Z,2.50
2022-10-12T14:41:54.777Z,3.65
2022-10-12T14:45:00.732Z,2.60
2022-10-12T14:48:07.419Z,2.90
2022-10-12T14:51:18.341Z,3.00
2022-10-12T14:54:28.323Z,3.20
2022-10-12T14:57:34.421Z,3.15
2022-10-12T15:00:45.560Z,2.97
2022-10-12T15:03:53.015Z,3.50
2022-10-12T15:07:00.200Z,3.38
2022-10-12T15:10:10.615Z,3.20
2022-10-12T15:13:16.203Z,3.55
2022-10-12T15:16:23.301Z,3.17
2022-10-12T15:19:28.509Z,2.90
2022-10-12T15:22:39.017Z,3.47
2022-10-12T15:25:51.304Z,2.78
2022-10-12T15:29:05.663Z,2.95
2022-10-12T15:32:12.432Z,2.88
2022-10-12T15:35:19.980Z,3.58
2022-10-12T15:38:25.016Z,2.78
2022-10-12T15:41:34.166Z,2.75
2022-10-12T15:44:42.892Z,3.40
2022-10-12T15:47:51.218Z,3.38
2022-10-12T15:50:57.024Z,3.28
2022-10-12T15:54:08.631Z,2.95
2022-10-12T15:57:24.350Z,2.88
2022-10-12T16:00:32.949Z,2.60
2022-10-12T16:03:38.854Z,3.40
2022-10-12T16:06:44.643Z,2.80
2022-10-12T16:09:53.354Z,2.97
2022-10-12T16:13:06.428Z,3.40
2022-10-12T16:16:12.274Z,2.80
2022-10-12T16:19:18.870Z,2.75
2022-10-12T16:22:24.278Z,2.50
2022-10-12T16:25:31.881Z,2.47
2022-10-12T16:28:43.089Z,2.40
2022-10-12T16:31:48.903Z,2.85
2022-10-12T16:34:55.259Z,2.40
2022-10-12T16:38:09.580Z,3.00
2022-10-12T16:41:21.753Z,2.70
2022-10-12T16:47:58.619Z,2.35
2022-10-12T16:51:13.524Z,2.78
2022-10-12T16:54:21.158Z,2.78
2022-10-12T16:57:56.125Z,2.80
2022-10-12T17:01:01.788Z,2.67
2022-10-12T17:04:12.311Z,3.00
2022-10-12T17:07:18.253Z,3.15
2022-10-12T17:10:24.099Z,2.63
2022-10-12T17:13:34.109Z,2.45
2022-10-12T17:16:59.032Z,2.75
2022-10-12T17:20:07.164Z,3.05
2022-10-12T17:23:18.200Z,3.30
2022-10-12T17:26:26.370Z,3.42
2022-10-12T17:29:41.185Z,3.30
2022-10-12T17:32:47.838Z,3.33
2022-10-12T17:35:57.270Z,3.53
2022-10-12T17:39:02.466Z,3.70
2022-10-12T17:42:32.562Z,3.63
2022-10-12T17:45:48.284Z,4.53
2022-10-12T17:48:56.829Z,5.25
2022-10-12T17:52:10.949Z,4.13
2022-10-12T17:55:36.532Z,4.75
2022-10-12T17:58:59.161Z,4.70
2022-10-12T18:02:09.472Z,4.75
2022-10-12T18:05:21.431Z,4.07
2022-10-12T18:08:32.540Z,4.53
2022-10-12T18:11:39.385Z,4.72
2022-10-12T18:14:45.215Z,4.05
2022-10-12T18:17:50.185Z,4.45
2022-10-12T18:20:55.948Z,4.53
2022-10-12T18:24:05.170Z,4.00
2022-10-12T18:27:11.182Z,3.70
2022-10-12T18:30:16.359Z,5.03
2022-10-12T18:33:22.166Z,4.15
2022-10-12T18:36:28.974Z,3.70
2022-10-12T18:39:40.408Z,4.40
2022-10-12T18:43:09.055Z,3.67
2022-10-12T18:46:31.959Z,4.65
2022-10-12T18:49:49.697Z,4.18
2022-10-12T18:53:04.784Z,4.40
2022-10-12T18:56:13.486Z,3.50
2022-10-12T18:59:26.189Z,3.60
2022-10-12T19:02:31.413Z,3.40
2022-10-12T19:05:39.743Z,3.30
2022-10-12T19:09:04.461Z,3.28
2022-10-12T19:12:17.111Z,3.83
2022-10-12T19:15:22.403Z,3.78
2022-10-12T19:18:34.543Z,3.03
2022-10-12T19:21:45.961Z,3.78
2022-10-12T19:25:01.360Z,3.60
2022-10-12T19:28:29.540Z,3.03
2022-10-12T19:31:53.719Z,2.53
2022-10-12T19:35:03.783Z,3.55
2022-10-12T19:38:23.716Z,3.53
2022-10-12T19:41:35.739Z,3.83
2022-10-12T19:44:45.354Z,4.05
2022-10-12T19:48:07.731Z,4.10
2022-10-12T19:51:35.255Z,3.50
2022-10-12T19:54:54.804Z,3.50
2022-10-12T19:58:40.671Z,3.67
2022-10-12T20:09:10.241Z,3.53
2022-10-12T20:12:24.727Z,3.10
2022-10-12T20:15:30.919Z,3.28
2022-10-12T20:18:47.369Z,3.33
2022-10-12T20:21:59.797Z,3.30
2022-10-12T20:25:09.391Z,3.67
2022-10-12T20:28:23.861Z,3.00
2022-10-12T20:31:33.782Z,3.17
2022-10-12T20:34:44.480Z,3.78
2022-10-12T20:37:55.332Z,3.35
2022-10-12T20:41:20.087Z,3.38
2022-10-12T20:44:30.273Z,3.15
2022-10-12T20:47:38.215Z,2.80
2022-10-12T20:50:46.381Z,3.38
2022-10-12T20:54:01.268Z,3.75
2022-10-12T20:57:12.183Z,2.92
2022-10-12T21:03:29.445Z,2.85
2022-10-12T21:06:41.775Z,3.42
2022-10-12T21:09:50.032Z,3.60
2022-10-12T21:12:55.605Z,3.40
2022-10-12T21:16:05.983Z,3.60
2022-10-12T21:19:15.303Z,4.10
2022-10-12T21:22:25.142Z,3.42
2022-10-12T21:25:35.360Z,4.00
2022-10-12T21:28:43.162Z,3.05
2022-10-12T21:32:00.431Z,2.97
2022-10-12T21:35:08.369Z,3.65
2022-10-12T21:38:23.666Z,3.20
2022-10-12T21:41:37.963Z,3.50
2022-10-12T21:44:52.687Z,3.45
2022-10-12T21:48:06.030Z,3.05
2022-10-12T21:51:12.334Z,3.40
2022-10-12T21:54:24.226Z,3.20
2022-10-12T21:57:33.462Z,3.30
2022-10-12T22:00:54.571Z,3.63
2022-10-12T22:04:12.386Z,3.38
2022-10-12T22:07:17.661Z,3.50
2022-10-12T22:10:32.244Z,3.55
2022-10-12T22:13:48.625Z,3.08
2022-10-12T22:16:58.847Z,3.50
2022-10-12T22:23:43.752Z,3.42
2022-10-12T22:26:52.909Z,3.13
2022-10-12T22:30:02.509Z,2.90
2022-10-12T22:33:14.371Z,3.72
2022-10-12T22:36:26.251Z,3.05
2022-10-12T22:39:31.559Z,2.92
2022-10-12T22:42:37.219Z,3.20
2022-10-12T22:45:46.617Z,2.80
2022-10-12T22:48:54.368Z,3.38
2022-10-12T22:52:01.008Z,3.38
2022-10-12T22:55:10.010Z,2.65
2022-10-12T22:58:18.026Z,2.63
2022-10-12T23:01:33.592Z,3.03
2022-10-12T23:04:42.566Z,2.65
2022-10-12T23:07:51.871Z,3.05
2022-10-12T23:10:56.950Z,2.70
2022-10-12T23:14:02.635Z,3.03
2022-10-12T23:17:11.686Z,2.53
2022-10-12T23:20:18.444Z,2.65
2022-10-12T23:23:25.358Z,2.63
2022-10-12T23:26:35.504Z,2.67
2022-10-12T23:29:42.857Z,2.53
2022-10-12T23:32:51.667Z,3.13
2022-10-12T23:40:13.782Z,2.60
2022-10-12T23:43:24.030Z,2.60
2022-10-12T23:46:30.854Z,2.80
2022-10-12T23:49:38.600Z,2.88
2022-10-12T23:52:50.985Z,2.60
2022-10-12T23:55:56.529Z,3.33
2022-10-12T23:59:02.022Z,2.95
